Terminal Aerodrome Forecast
Issued by NWS Anchorage, AK

Home | Current Version | Previous Version | Text Only | Print | Product List | Glossary On
Versions: 1 2 3 4 5 6 7 8 9 10 11 12 13 14 15 16 17 18 19 20 21 22 23 24
000
FTAK31 PANC 292114 AAC
TAFANC
TAF AMD
PANC 292114Z 2921/3024 19007KT 1 1/2SM -SN BR FEW006 BKN016
      TEMPO 2921/2923 6SM -SN BR
     FM292300 21006KT 6SM -SN BR SCT015 OVC025
     FM300600 19004KT 3SM -SN BR OVC015
     FM301200 VRB04KT P6SM SCT035 BKN070=

USA.gov is the U.S. government's official web portal to all federal, state and local government web resources and services.